createdAt,value
2023-03-06T00:00:44.744Z,0.60
2023-03-06T00:03:19.485Z,0.54
2023-03-06T00:05:47.942Z,0.53
2023-03-06T00:08:16.466Z,0.50
2023-03-06T00:10:44.736Z,0.50
2023-03-06T00:13:15.172Z,0.52
2023-03-06T00:15:43.414Z,0.54
2023-03-06T00:18:12.253Z,0.52
2023-03-06T00:20:41.915Z,0.50
2023-03-06T00:23:11.289Z,0.47
2023-03-06T00:25:43.708Z,0.44
2023-03-06T00:28:12.576Z,0.40
2023-03-06T00:30:41.568Z,0.37
2023-03-06T00:33:10.024Z,0.34
2023-03-06T00:35:42.166Z,0.32
2023-03-06T00:38:13.380Z,0.28
2023-03-06T00:40:41.556Z,0.25
2023-03-06T00:43:09.922Z,0.24
2023-03-06T00:45:38.525Z,0.20
2023-03-06T00:48:06.820Z,0.16
2023-03-06T00:50:35.557Z,0.12
2023-03-06T00:53:03.808Z,0.08
2023-03-06T00:55:33.668Z,0.05
2023-03-06T00:58:02.050Z,0.03
2023-03-06T01:00:30.429Z,-0.01
2023-03-06T01:02:58.669Z,-0.03
2023-03-06T01:05:26.844Z,-0.04
2023-03-06T01:07:54.962Z,-0.08
2023-03-06T01:10:23.391Z,-0.13
2023-03-06T01:12:51.508Z,-0.15
2023-03-06T01:15:20.688Z,-0.16
2023-03-06T01:17:53.531Z,-0.20
2023-03-06T01:20:22.173Z,-0.25
2023-03-06T01:22:50.912Z,-0.30
2023-03-06T01:25:19.240Z,-0.38
2023-03-06T01:27:47.428Z,-0.41
2023-03-06T01:30:15.694Z,-0.41
2023-03-06T01:32:43.920Z,-0.45
2023-03-06T01:35:13.042Z,-0.50
2023-03-06T01:37:41.226Z,-0.49
2023-03-06T01:40:11.588Z,-0.49
2023-03-06T01:42:40.016Z,-0.51
2023-03-06T01:45:14.213Z,-0.50
2023-03-06T01:47:42.394Z,-0.48
2023-03-06T01:50:12.028Z,-0.50
2023-03-06T01:52:50.271Z,-0.53
2023-03-06T01:55:26.389Z,-0.57
2023-03-06T01:57:57.989Z,-0.66
2023-03-06T02:00:29.068Z,-0.72
2023-03-06T02:03:11.525Z,-0.71
2023-03-06T02:05:40.966Z,-0.67
2023-03-06T02:08:12.611Z,-0.65
2023-03-06T02:11:20.855Z,-0.65
2023-03-06T02:13:50.841Z,-0.67
2023-03-06T02:16:23.918Z,-0.69
2023-03-06T02:18:53.356Z,-0.66
2023-03-06T02:21:32.078Z,-0.64
2023-03-06T02:24:14.760Z,-0.65
2023-03-06T02:26:45.348Z,-0.69
2023-03-06T02:29:19.383Z,-0.70
2023-03-06T02:31:47.513Z,-0.72
2023-03-06T02:34:15.577Z,-0.74
2023-03-06T02:37:09.051Z,-0.78
2023-03-06T02:39:44.234Z,-0.79
2023-03-06T02:42:18.701Z,-0.77
2023-03-06T02:44:48.547Z,-0.72
2023-03-06T02:47:16.745Z,-0.65
2023-03-06T02:49:45.274Z,-0.61
2023-03-06T02:52:13.648Z,-0.56
2023-03-06T02:54:42.746Z,-0.53
2023-03-06T02:57:11.485Z,-0.52
2023-03-06T02:59:39.748Z,-0.50
2023-03-06T03:02:07.846Z,-0.50
2023-03-06T03:04:36.057Z,-0.51
2023-03-06T03:07:04.331Z,-0.54
2023-03-06T03:09:37.097Z,-0.57
2023-03-06T03:12:06.910Z,-0.62
2023-03-06T03:14:35.389Z,-0.67
2023-03-06T03:17:04.280Z,-0.71
2023-03-06T03:19:32.711Z,-0.75
2023-03-06T03:22:00.980Z,-0.82
2023-03-06T03:24:29.387Z,-0.91
2023-03-06T03:26:57.936Z,-1.04
2023-03-06T03:29:26.398Z,-1.22
2023-03-06T03:31:54.750Z,-1.32
2023-03-06T03:34:25.554Z,-1.45
2023-03-06T03:36:54.965Z,-1.52
2023-03-06T03:39:23.155Z,-1.55
2023-03-06T03:41:51.314Z,-1.62
2023-03-06T03:44:20.788Z,-1.69
2023-03-06T03:46:49.407Z,-1.75
2023-03-06T03:49:20.675Z,-1.79
2023-03-06T03:51:49.578Z,-1.89
2023-03-06T03:54:18.158Z,-2.01
2023-03-06T03:56:47.569Z,-2.09
2023-03-06T03:59:21.083Z,-2.09
2023-03-06T04:02:25.647Z,-2.08
2023-03-06T04:05:01.173Z,-2.07
2023-03-06T04:07:29.491Z,-2.04
2023-03-06T04:09:57.616Z,-2.03
2023-03-06T04:12:26.013Z,-2.04
2023-03-06T04:14:54.225Z,-2.11
2023-03-06T04:17:23.396Z,-2.14
2023-03-06T04:19:52.498Z,-2.17
2023-03-06T04:22:20.709Z,-2.20
2023-03-06T04:24:50.084Z,-2.24
2023-03-06T04:27:18.793Z,-2.27
2023-03-06T04:29:47.234Z,-2.34
2023-03-06T04:32:15.886Z,-2.40
2023-03-06T04:34:44.063Z,-2.46
2023-03-06T04:37:20.677Z,-2.51
2023-03-06T04:39:49.922Z,-2.56
2023-03-06T04:42:18.677Z,-2.61
2023-03-06T04:44:46.900Z,-2.62
2023-03-06T04:47:15.856Z,-2.66
2023-03-06T04:49:45.252Z,-2.63
2023-03-06T04:52:13.544Z,-2.62
2023-03-06T04:54:43.009Z,-2.59
2023-03-06T04:57:11.247Z,-2.55
2023-03-06T04:59:39.414Z,-2.53
2023-03-06T05:02:07.745Z,-2.45
2023-03-06T05:04:35.892Z,-2.42
2023-03-06T05:07:04.268Z,-2.41
2023-03-06T05:09:34.281Z,-2.35
2023-03-06T05:12:03.547Z,-2.33
2023-03-06T05:14:31.880Z,-2.34
2023-03-06T05:17:00.228Z,-2.35
2023-03-06T05:19:28.365Z,-2.26
2023-03-06T05:21:56.560Z,-2.16
2023-03-06T05:24:24.731Z,-2.12
2023-03-06T05:26:53.142Z,-2.06
2023-03-06T05:29:21.450Z,-1.99
2023-03-06T05:31:49.653Z,-1.98
2023-03-06T05:34:18.105Z,-2.02
2023-03-06T05:36:47.443Z,-1.98
2023-03-06T05:39:15.631Z,-1.82
2023-03-06T05:41:43.776Z,-1.71
2023-03-06T05:44:15.228Z,-1.59
2023-03-06T05:46:43.358Z,-1.48
2023-03-06T05:49:13.578Z,-1.23
2023-03-06T05:51:44.098Z,-0.96
2023-03-06T05:54:12.554Z,-0.61
2023-03-06T05:56:44.348Z,-0.21
2023-03-06T05:59:18.128Z,0.21
2023-03-06T06:01:53.303Z,0.67
2023-03-06T06:04:40.723Z,1.22
2023-03-06T06:07:16.460Z,1.66
2023-03-06T06:09:47.874Z,2.15
2023-03-06T06:12:18.860Z,2.58
2023-03-06T06:14:48.117Z,2.89
2023-03-06T06:17:17.229Z,2.76
2023-03-06T06:19:45.737Z,2.54
2023-03-06T06:22:14.010Z,2.96
2023-03-06T06:24:42.269Z,3.28
2023-03-06T06:27:11.609Z,3.67
2023-03-06T06:29:39.730Z,3.81
2023-03-06T06:32:08.412Z,4.10
2023-03-06T06:34:36.876Z,4.12
2023-03-06T06:37:05.512Z,3.97
2023-03-06T06:39:33.745Z,3.74
2023-03-06T06:42:28.312Z,3.77
2023-03-06T06:44:55.482Z,4.40
2023-03-06T06:47:30.492Z,5.30
2023-03-06T06:50:10.547Z,5.46
2023-03-06T06:52:43.176Z,5.02
2023-03-06T06:55:22.888Z,4.89
2023-03-06T06:57:55.621Z,5.02
2023-03-06T07:00:26.058Z,5.42
2023-03-06T07:03:06.390Z,5.89
2023-03-06T07:05:37.249Z,6.10
2023-03-06T07:08:08.047Z,5.97
2023-03-06T07:10:39.542Z,5.81
2023-03-06T07:13:08.600Z,5.71
2023-03-06T07:15:37.182Z,5.67
2023-03-06T07:18:22.359Z,5.77
2023-03-06T07:20:51.385Z,5.92
2023-03-06T07:23:20.206Z,5.95
2023-03-06T07:25:52.535Z,6.01
2023-03-06T07:28:22.116Z,5.91
2023-03-06T07:31:00.284Z,5.95
2023-03-06T07:33:29.210Z,6.41
2023-03-06T07:35:58.372Z,6.75
2023-03-06T07:38:26.774Z,6.96
2023-03-06T07:40:55.174Z,7.08
2023-03-06T07:43:23.657Z,7.06
2023-03-06T07:45:59.373Z,7.10
2023-03-06T07:48:28.339Z,7.34
2023-03-06T07:51:03.398Z,8.07
2023-03-06T07:53:33.413Z,8.51
2023-03-06T07:56:16.641Z,8.22
2023-03-06T07:59:18.656Z,8.31
2023-03-06T08:04:56.685Z,8.90
2023-03-06T08:07:25.466Z,9.05
2023-03-06T08:09:59.753Z,9.74
2023-03-06T08:12:30.835Z,10.61
2023-03-06T08:15:08.768Z,11.35
2023-03-06T08:17:40.199Z,12.14
2023-03-06T08:20:25.428Z,12.48
2023-03-06T08:23:07.642Z,13.39
2023-03-06T08:25:36.163Z,13.87
2023-03-06T08:28:06.792Z,14.77
2023-03-06T08:30:37.001Z,15.18
2023-03-06T08:33:08.523Z,15.00
2023-03-06T08:35:36.973Z,14.74
2023-03-06T08:38:10.597Z,14.37
2023-03-06T08:40:55.977Z,13.98
2023-03-06T08:43:25.430Z,13.59
2023-03-06T08:46:01.345Z,13.05
2023-03-06T08:48:30.683Z,12.84
2023-03-06T08:50:59.007Z,12.11
2023-03-06T08:53:41.697Z,11.95
2023-03-06T08:56:21.231Z,11.50
2023-03-06T08:58:50.160Z,11.33
2023-03-06T09:01:28.088Z,11.31
2023-03-06T09:04:01.764Z,11.22
2023-03-06T09:06:34.376Z,10.97
2023-03-06T09:09:10.916Z,10.65
2023-03-06T09:11:39.683Z,10.59
2023-03-06T09:14:08.208Z,10.54
2023-03-06T09:16:39.983Z,10.51
2023-03-06T09:19:08.526Z,10.45
2023-03-06T09:21:40.470Z,10.25
2023-03-06T09:24:09.275Z,10.14
2023-03-06T09:26:46.058Z,9.99
2023-03-06T09:29:45.382Z,9.86
2023-03-06T09:32:22.432Z,9.83
2023-03-06T09:34:54.596Z,9.91
2023-03-06T09:37:23.875Z,10.29
2023-03-06T09:39:52.184Z,10.50
2023-03-06T09:42:24.445Z,10.46
2023-03-06T09:45:06.632Z,10.57
2023-03-06T09:47:51.916Z,10.36
2023-03-06T09:50:29.685Z,10.13
2023-03-06T09:53:27.117Z,9.87
2023-03-06T09:56:13.868Z,9.88
2023-03-06T09:59:20.966Z,9.91
2023-03-06T10:02:15.228Z,9.95
2023-03-06T10:04:49.411Z,10.23
2023-03-06T10:07:29.087Z,10.53
2023-03-06T10:10:07.818Z,10.63
2023-03-06T10:12:48.468Z,10.84
2023-03-06T10:15:27.747Z,10.91
2023-03-06T10:17:58.257Z,10.80
2023-03-06T10:21:00.960Z,10.74
2023-03-06T10:23:52.549Z,10.54
2023-03-06T10:26:28.279Z,10.54
2023-03-06T10:29:14.721Z,10.58
2023-03-06T10:31:49.757Z,10.62
2023-03-06T10:34:23.730Z,10.43
2023-03-06T10:36:52.198Z,10.47
2023-03-06T10:39:27.006Z,10.64
2023-03-06T10:41:58.070Z,10.92
2023-03-06T10:44:29.160Z,10.78
2023-03-06T10:46:57.657Z,10.72
2023-03-06T10:49:28.878Z,10.80
2023-03-06T10:52:09.853Z,10.66
2023-03-06T10:54:41.676Z,10.63
2023-03-06T10:57:29.569Z,10.74
2023-03-06T11:00:08.545Z,11.17
2023-03-06T11:02:41.257Z,11.71
2023-03-06T11:05:20.810Z,12.55
2023-03-06T11:07:59.473Z,13.47
2023-03-06T11:10:31.559Z,14.62
2023-03-06T11:13:08.532Z,15.99
2023-03-06T11:15:36.923Z,17.42
2023-03-06T11:18:08.289Z,18.59
2023-03-06T11:20:52.515Z,18.96
2023-03-06T11:23:34.951Z,19.40
2023-03-06T11:26:16.768Z,19.75
2023-03-06T11:29:11.543Z,20.15
2023-03-06T11:32:05.547Z,20.17
2023-03-06T11:35:03.890Z,20.11
2023-03-06T11:37:32.166Z,19.43
2023-03-06T11:40:42.109Z,18.58
2023-03-06T11:43:26.181Z,17.21
2023-03-06T11:46:08.357Z,16.11
2023-03-06T11:48:46.622Z,15.52
2023-03-06T11:51:21.589Z,15.19
2023-03-06T11:53:58.694Z,14.93
2023-03-06T11:56:38.960Z,14.48
2023-03-06T11:59:16.193Z,14.08
2023-03-06T12:02:00.725Z,13.80
2023-03-06T12:05:07.408Z,13.52
2023-03-06T12:07:48.681Z,13.25
2023-03-06T12:10:42.259Z,13.07
2023-03-06T12:13:26.163Z,12.61
2023-03-06T12:16:17.107Z,12.28
2023-03-06T12:19:06.594Z,11.52
2023-03-06T12:21:58.824Z,11.03
2023-03-06T12:24:46.781Z,10.49
2023-03-06T12:27:28.592Z,10.23
2023-03-06T12:30:15.392Z,10.30
2023-03-06T12:32:59.335Z,10.18
2023-03-06T12:35:53.995Z,10.16
2023-03-06T12:38:36.963Z,10.28
2023-03-06T12:41:36.073Z,10.25
2023-03-06T12:44:30.871Z,10.11
2023-03-06T12:47:05.309Z,9.69
2023-03-06T12:49:39.035Z,9.14
2023-03-06T12:52:09.824Z,8.94
2023-03-06T12:54:41.329Z,8.89
2023-03-06T12:57:09.841Z,8.80
2023-03-06T12:59:44.520Z,8.61
2023-03-06T13:02:31.888Z,8.62
2023-03-06T13:05:22.763Z,8.68
2023-03-06T13:08:35.242Z,8.81
2023-03-06T13:11:21.434Z,8.91
2023-03-06T13:13:49.725Z,8.97
2023-03-06T13:16:34.156Z,9.07
2023-03-06T13:19:23.413Z,9.14
2023-03-06T13:21:54.638Z,9.02
2023-03-06T13:24:31.513Z,9.00
2023-03-06T13:27:08.979Z,9.08
2023-03-06T13:29:37.169Z,8.97
2023-03-06T13:32:14.336Z,8.94
2023-03-06T13:34:50.152Z,8.89
2023-03-06T13:37:23.305Z,8.76
2023-03-06T13:40:00.679Z,8.60
2023-03-06T13:42:35.352Z,8.72
2023-03-06T13:45:17.403Z,8.85
2023-03-06T13:48:15.524Z,8.81
2023-03-06T13:50:43.149Z,8.83
2023-03-06T13:53:33.059Z,8.87
2023-03-06T13:56:22.952Z,8.77
2023-03-06T13:59:22.078Z,8.66
2023-03-06T14:02:10.548Z,8.44
2023-03-06T14:04:56.260Z,8.47
2023-03-06T14:07:29.774Z,8.54
2023-03-06T14:10:13.381Z,8.59
2023-03-06T14:13:01.079Z,8.60
2023-03-06T14:15:41.272Z,8.70
2023-03-06T14:18:18.645Z,8.62
2023-03-06T14:21:02.100Z,8.54
2023-03-06T14:23:45.980Z,8.43
2023-03-06T14:26:19.403Z,8.34
2023-03-06T14:29:00.271Z,8.27
2023-03-06T14:31:32.077Z,8.20
2023-03-06T14:34:19.913Z,8.10
2023-03-06T14:36:50.993Z,8.09
2023-03-06T14:39:30.599Z,8.15
2023-03-06T14:42:29.028Z,8.18
2023-03-06T14:45:03.372Z,8.15
2023-03-06T14:47:33.432Z,8.06
2023-03-06T14:50:24.220Z,7.93
2023-03-06T14:53:17.598Z,7.91
2023-03-06T14:55:53.460Z,7.85
2023-03-06T14:58:45.943Z,7.71
2023-03-06T15:01:15.524Z,7.62
2023-03-06T15:03:58.474Z,7.46
2023-03-06T15:06:33.338Z,7.43
2023-03-06T15:09:08.927Z,7.30
2023-03-06T15:12:03.946Z,7.26
2023-03-06T15:14:38.276Z,7.19
2023-03-06T15:17:15.754Z,7.12
2023-03-06T15:19:45.830Z,7.08
2023-03-06T15:22:31.917Z,7.07
2023-03-06T15:25:27.250Z,7.07
2023-03-06T15:28:02.086Z,7.02
2023-03-06T15:30:33.618Z,6.94
2023-03-06T15:33:24.259Z,6.90
2023-03-06T15:35:57.590Z,6.89
2023-03-06T15:38:40.956Z,7.37
2023-03-06T15:41:43.996Z,7.87
2023-03-06T15:44:14.628Z,8.11
2023-03-06T15:46:42.869Z,8.21
2023-03-06T15:49:14.878Z,8.53
2023-03-06T15:51:43.086Z,8.45
2023-03-06T15:54:12.516Z,8.10
2023-03-06T15:56:44.318Z,7.81
2023-03-06T15:59:33.319Z,7.55
2023-03-06T16:02:11.217Z,7.25
2023-03-06T16:04:39.507Z,7.08
2023-03-06T16:07:07.891Z,6.97
2023-03-06T16:09:36.955Z,6.78
2023-03-06T16:12:06.019Z,6.67
2023-03-06T16:14:34.328Z,6.57
2023-03-06T16:17:02.648Z,6.42
2023-03-06T16:19:30.924Z,6.37
2023-03-06T16:21:59.895Z,6.36
2023-03-06T16:24:27.998Z,6.23
2023-03-06T16:27:00.567Z,6.16
2023-03-06T16:29:29.936Z,6.15
2023-03-06T16:31:59.049Z,6.03
2023-03-06T16:34:27.592Z,6.03
2023-03-06T16:36:56.098Z,5.90
2023-03-06T16:39:24.867Z,5.84
2023-03-06T16:41:53.376Z,5.77
2023-03-06T16:44:21.574Z,5.71
2023-03-06T16:46:50.631Z,5.65
2023-03-06T16:49:18.854Z,5.65
2023-03-06T16:51:47.516Z,5.60
2023-03-06T16:54:15.749Z,5.48
2023-03-06T16:56:53.894Z,5.39
2023-03-06T16:59:22.231Z,5.34
2023-03-06T17:01:50.438Z,5.14
2023-03-06T17:04:18.671Z,5.02
2023-03-06T17:06:47.010Z,5.00
2023-03-06T17:09:15.285Z,4.98
2023-03-06T17:11:46.936Z,4.98
2023-03-06T17:14:15.562Z,4.95
2023-03-06T17:16:44.004Z,4.93
2023-03-06T17:19:17.173Z,4.92
2023-03-06T17:21:45.625Z,4.92
2023-03-06T17:24:13.818Z,4.87
2023-03-06T17:26:43.355Z,4.84
2023-03-06T17:29:12.255Z,4.81
2023-03-06T17:31:40.517Z,4.83
2023-03-06T17:34:08.947Z,4.81
2023-03-06T17:36:37.070Z,4.79
2023-03-06T17:39:06.190Z,4.70
2023-03-06T17:41:34.567Z,4.66
2023-03-06T17:44:03.132Z,4.67
2023-03-06T17:46:34.937Z,4.69
2023-03-06T17:49:03.198Z,4.72
2023-03-06T17:51:31.342Z,4.76
2023-03-06T17:53:59.583Z,4.78
2023-03-06T17:56:27.864Z,4.79
2023-03-06T17:58:57.114Z,4.78
2023-03-06T18:01:30.295Z,4.78
2023-03-06T18:03:58.686Z,4.75
2023-03-06T18:06:30.281Z,4.74
2023-03-06T18:08:58.587Z,4.75
2023-03-06T18:11:27.128Z,4.67
2023-03-06T18:13:55.350Z,4.58
2023-03-06T18:16:25.978Z,4.45
2023-03-06T18:18:56.515Z,4.35
2023-03-06T18:21:25.047Z,4.26
2023-03-06T18:23:53.812Z,4.17
2023-03-06T18:26:24.772Z,4.11
2023-03-06T18:29:03.611Z,4.05
2023-03-06T18:31:35.073Z,4.00
2023-03-06T18:34:07.350Z,3.96
2023-03-06T18:36:36.544Z,3.89
2023-03-06T18:39:09.759Z,3.83
2023-03-06T18:41:38.495Z,3.80
2023-03-06T18:44:06.984Z,3.79
2023-03-06T18:46:37.909Z,3.77
2023-03-06T18:49:06.617Z,3.73
2023-03-06T18:51:35.338Z,3.72
2023-03-06T18:54:06.769Z,3.69
2023-03-06T18:56:35.029Z,3.66
2023-03-06T18:59:05.568Z,3.66
2023-03-06T19:01:35.000Z,3.64
2023-03-06T19:04:04.806Z,3.64
2023-03-06T19:06:33.053Z,3.65
2023-03-06T19:09:02.305Z,3.64
2023-03-06T19:11:32.289Z,3.62
2023-03-06T19:14:00.962Z,3.63
2023-03-06T19:16:31.329Z,3.64
2023-03-06T19:18:59.654Z,3.65
2023-03-06T19:21:28.859Z,3.64
2023-03-06T19:23:58.221Z,3.64
2023-03-06T19:26:28.220Z,3.66
2023-03-06T19:28:56.631Z,3.67
2023-03-06T19:31:27.291Z,3.63
2023-03-06T19:33:56.925Z,3.59
2023-03-06T19:36:28.982Z,3.53
2023-03-06T19:38:59.129Z,3.52
2023-03-06T19:41:28.271Z,3.52
2023-03-06T19:43:59.329Z,3.52
2023-03-06T19:46:27.700Z,3.54
2023-03-06T19:48:58.934Z,3.56
2023-03-06T19:51:27.853Z,3.60
2023-03-06T19:53:57.671Z,3.60
2023-03-06T19:56:29.216Z,3.55
2023-03-06T19:58:57.943Z,3.56
2023-03-06T20:01:27.821Z,3.54
2023-03-06T20:03:59.472Z,3.50
2023-03-06T20:06:31.220Z,3.47
2023-03-06T20:09:02.012Z,3.45
2023-03-06T20:11:31.072Z,3.43
2023-03-06T20:14:01.287Z,3.45
2023-03-06T20:16:30.381Z,3.42
2023-03-06T20:19:00.795Z,3.38
2023-03-06T20:21:31.411Z,3.36
2023-03-06T20:23:59.898Z,3.42
2023-03-06T20:26:29.162Z,3.45
2023-03-06T20:28:58.037Z,3.45
2023-03-06T20:31:29.991Z,3.42
2023-03-06T20:33:59.627Z,3.41
2023-03-06T20:36:30.898Z,3.40
2023-03-06T20:39:00.693Z,3.40
2023-03-06T20:41:30.451Z,3.44
2023-03-06T20:44:00.986Z,3.48
2023-03-06T20:46:30.793Z,3.49
2023-03-06T20:48:59.688Z,3.48
2023-03-06T20:51:39.195Z,3.49
2023-03-06T20:54:10.310Z,3.48
2023-03-06T20:56:40.006Z,3.49
2023-03-06T20:59:10.974Z,3.47
2023-03-06T21:01:41.875Z,3.50
2023-03-06T21:04:14.085Z,3.52
2023-03-06T21:06:46.776Z,3.52
2023-03-06T21:09:17.091Z,3.57
2023-03-06T21:11:46.409Z,3.57
2023-03-06T21:14:15.309Z,3.57
2023-03-06T21:16:44.817Z,3.57
2023-03-06T21:19:13.350Z,3.55
2023-03-06T21:21:41.801Z,3.54
2023-03-06T21:24:09.977Z,3.51
2023-03-06T21:26:38.097Z,3.50
2023-03-06T21:29:06.404Z,3.53
2023-03-06T21:31:34.637Z,3.55
2023-03-06T21:34:05.038Z,3.58
2023-03-06T21:36:34.113Z,3.64
2023-03-06T21:39:03.922Z,3.69
2023-03-06T21:41:32.690Z,3.71
2023-03-06T21:44:03.646Z,3.74
2023-03-06T21:46:32.574Z,3.76
2023-03-06T21:49:04.106Z,3.77
2023-03-06T21:51:32.375Z,3.76
2023-03-06T21:54:00.696Z,3.75
2023-03-06T21:56:29.183Z,3.73
2023-03-06T21:58:58.418Z,3.75
2023-03-06T22:01:29.063Z,3.80
2023-03-06T22:03:58.757Z,3.87
2023-03-06T22:06:28.955Z,3.93
2023-03-06T22:08:59.627Z,3.99
2023-03-06T22:11:31.419Z,4.06
2023-03-06T22:13:59.903Z,4.12
2023-03-06T22:16:28.747Z,4.17
2023-03-06T22:18:57.258Z,4.18
2023-03-06T22:21:25.875Z,4.21
2023-03-06T22:23:59.544Z,4.22
2023-03-06T22:26:29.499Z,4.21
2023-03-06T22:28:57.720Z,4.23
2023-03-06T22:31:28.684Z,4.21
2023-03-06T22:33:59.695Z,4.16
2023-03-06T22:36:30.594Z,4.14
2023-03-06T22:39:00.925Z,4.15
2023-03-06T22:41:29.222Z,4.17
2023-03-06T22:43:58.652Z,4.19
2023-03-06T22:46:28.037Z,4.18
2023-03-06T22:48:57.715Z,4.19
2023-03-06T22:51:27.549Z,4.23
2023-03-06T22:53:55.760Z,4.28
2023-03-06T22:56:24.645Z,4.34
2023-03-06T22:58:52.769Z,4.35
2023-03-06T23:01:25.217Z,4.39
2023-03-06T23:03:56.079Z,4.40
2023-03-06T23:06:30.311Z,4.42
2023-03-06T23:09:14.837Z,4.37
2023-03-06T23:12:02.100Z,4.36
2023-03-06T23:14:51.317Z,4.33
2023-03-06T23:17:38.208Z,4.34
2023-03-06T23:20:25.398Z,4.36
2023-03-06T23:23:12.277Z,4.36
2023-03-06T23:25:44.208Z,4.36
2023-03-06T23:28:12.661Z,4.38
2023-03-06T23:30:41.751Z,4.37
2023-03-06T23:33:10.517Z,4.38
2023-03-06T23:35:41.666Z,4.39
2023-03-06T23:38:09.875Z,4.40
2023-03-06T23:40:39.453Z,4.39
2023-03-06T23:43:07.941Z,4.40
2023-03-06T23:45:36.701Z,4.43
2023-03-06T23:48:07.530Z,4.52
2023-03-06T23:50:35.690Z,4.52
2023-03-06T23:53:03.867Z,4.54
2023-03-06T23:55:32.270Z,4.58
2023-03-06T23:58:00.356Z,4.55
